sensor_id;sensor_type;location;lat;lon;timestamp;P1;durP1;ratioP1;P2;durP2;ratioP2
16975;SDS011;8604;48.148;-1.786;2023-03-23T00:00:57;20.77;;;5.10;;
16975;SDS011;8604;48.148;-1.786;2023-03-23T00:03:27;21.20;;;4.67;;
16975;SDS011;8604;48.148;-1.786;2023-03-23T00:05:57;23.47;;;5.40;;
16975;SDS011;8604;48.148;-1.786;2023-03-23T00:08:31;21.83;;;5.17;;
16975;SDS011;8604;48.148;-1.786;2023-03-23T00:11:03;19.93;;;5.23;;
16975;SDS011;8604;48.148;-1.786;2023-03-23T00:13:30;21.93;;;5.33;;
16975;SDS011;8604;48.148;-1.786;2023-03-23T00:15:58;21.67;;;4.97;;
16975;SDS011;8604;48.148;-1.786;2023-03-23T00:18:26;18.03;;;4.77;;
16975;SDS011;8604;48.148;-1.786;2023-03-23T00:20:55;24.77;;;5.87;;
16975;SDS011;8604;48.148;-1.786;2023-03-23T00:23:24;19.97;;;5.00;;
16975;SDS011;8604;48.148;-1.786;2023-03-23T00:25:54;22.93;;;4.87;;
16975;SDS011;8604;48.148;-1.786;2023-03-23T00:28:23;22.63;;;5.13;;
16975;SDS011;8604;48.148;-1.786;2023-03-23T00:30:55;19.57;;;4.50;;
16975;SDS011;8604;48.148;-1.786;2023-03-23T00:33:29;20.00;;;4.73;;
16975;SDS011;8604;48.148;-1.786;2023-03-23T00:36:03;20.53;;;4.87;;
16975;SDS011;8604;48.148;-1.786;2023-03-23T00:38:34;21.03;;;4.60;;
16975;SDS011;8604;48.148;-1.786;2023-03-23T00:41:03;18.20;;;4.50;;
16975;SDS011;8604;48.148;-1.786;2023-03-23T00:43:31;20.97;;;4.43;;
16975;SDS011;8604;48.148;-1.786;2023-03-23T00:46:01;20.07;;;4.90;;
16975;SDS011;8604;48.148;-1.786;2023-03-23T00:48:35;21.23;;;4.37;;
16975;SDS011;8604;48.148;-1.786;2023-03-23T00:51:06;15.37;;;4.03;;
16975;SDS011;8604;48.148;-1.786;2023-03-23T00:53:37;22.13;;;4.60;;
16975;SDS011;8604;48.148;-1.786;2023-03-23T00:56:05;16.80;;;4.10;;
16975;SDS011;8604;48.148;-1.786;2023-03-23T00:58:33;18.77;;;4.20;;
16975;SDS011;8604;48.148;-1.786;2023-03-23T01:01:00;21.13;;;4.77;;
16975;SDS011;8604;48.148;-1.786;2023-03-23T01:03:28;17.00;;;4.37;;
16975;SDS011;8604;48.148;-1.786;2023-03-23T01:06:03;17.20;;;4.17;;
16975;SDS011;8604;48.148;-1.786;2023-03-23T01:08:33;14.27;;;4.00;;
16975;SDS011;8604;48.148;-1.786;2023-03-23T01:11:02;14.27;;;3.50;;
16975;SDS011;8604;48.148;-1.786;2023-03-23T01:13:32;14.20;;;3.77;;
16975;SDS011;8604;48.148;-1.786;2023-03-23T01:15:59;16.47;;;3.80;;
16975;SDS011;8604;48.148;-1.786;2023-03-23T01:18:27;17.70;;;4.10;;
16975;SDS011;8604;48.148;-1.786;2023-03-23T01:20:54;17.23;;;3.70;;
16975;SDS011;8604;48.148;-1.786;2023-03-23T01:23:23;14.60;;;3.40;;
16975;SDS011;8604;48.148;-1.786;2023-03-23T01:25:50;16.03;;;3.73;;
16975;SDS011;8604;48.148;-1.786;2023-03-23T01:28:19;15.23;;;3.77;;
16975;SDS011;8604;48.148;-1.786;2023-03-23T01:30:47;14.70;;;3.80;;
16975;SDS011;8604;48.148;-1.786;2023-03-23T01:33:14;17.20;;;4.00;;
16975;SDS011;8604;48.148;-1.786;2023-03-23T01:35:42;17.07;;;3.67;;
16975;SDS011;8604;48.148;-1.786;2023-03-23T01:38:10;16.30;;;3.87;;
16975;SDS011;8604;48.148;-1.786;2023-03-23T01:40:39;15.53;;;3.73;;
16975;SDS011;8604;48.148;-1.786;2023-03-23T01:43:08;13.57;;;3.53;;
16975;SDS011;8604;48.148;-1.786;2023-03-23T01:45:41;15.97;;;4.13;;
16975;SDS011;8604;48.148;-1.786;2023-03-23T01:48:15;13.77;;;3.67;;
16975;SDS011;8604;48.148;-1.786;2023-03-23T01:50:50;14.30;;;3.80;;
16975;SDS011;8604;48.148;-1.786;2023-03-23T01:53:22;13.93;;;3.90;;
16975;SDS011;8604;48.148;-1.786;2023-03-23T01:55:56;16.10;;;4.07;;
16975;SDS011;8604;48.148;-1.786;2023-03-23T01:58:26;15.80;;;3.97;;
16975;SDS011;8604;48.148;-1.786;2023-03-23T02:00:57;17.27;;;4.10;;
16975;SDS011;8604;48.148;-1.786;2023-03-23T02:03:30;18.33;;;3.87;;
16975;SDS011;8604;48.148;-1.786;2023-03-23T02:05:59;15.27;;;4.17;;
16975;SDS011;8604;48.148;-1.786;2023-03-23T02:08:54;22.73;;;4.57;;
16975;SDS011;8604;48.148;-1.786;2023-03-23T02:11:24;16.90;;;4.43;;
16975;SDS011;8604;48.148;-1.786;2023-03-23T02:13:51;14.57;;;4.33;;
16975;SDS011;8604;48.148;-1.786;2023-03-23T02:16:25;14.90;;;3.87;;
16975;SDS011;8604;48.148;-1.786;2023-03-23T02:19:08;18.17;;;4.13;;
16975;SDS011;8604;48.148;-1.786;2023-03-23T02:22:07;21.63;;;4.93;;
16975;SDS011;8604;48.148;-1.786;2023-03-23T02:24:53;15.97;;;4.07;;
16975;SDS011;8604;48.148;-1.786;2023-03-23T02:27:34;21.80;;;4.90;;
16975;SDS011;8604;48.148;-1.786;2023-03-23T02:30:34;18.23;;;4.43;;
16975;SDS011;8604;48.148;-1.786;2023-03-23T02:33:15;20.33;;;4.73;;
16975;SDS011;8604;48.148;-1.786;2023-03-23T02:35:57;20.03;;;4.30;;
16975;SDS011;8604;48.148;-1.786;2023-03-23T02:38:29;24.43;;;4.63;;
16975;SDS011;8604;48.148;-1.786;2023-03-23T02:41:01;17.47;;;4.33;;
16975;SDS011;8604;48.148;-1.786;2023-03-23T02:43:31;19.80;;;4.93;;
16975;SDS011;8604;48.148;-1.786;2023-03-23T02:46:03;22.00;;;4.90;;
16975;SDS011;8604;48.148;-1.786;2023-03-23T02:48:35;19.80;;;4.30;;
16975;SDS011;8604;48.148;-1.786;2023-03-23T02:51:05;18.07;;;4.53;;
16975;SDS011;8604;48.148;-1.786;2023-03-23T02:53:34;18.80;;;4.20;;
16975;SDS011;8604;48.148;-1.786;2023-03-23T02:56:05;16.13;;;4.10;;
16975;SDS011;8604;48.148;-1.786;2023-03-23T02:58:34;19.10;;;3.90;;
16975;SDS011;8604;48.148;-1.786;2023-03-23T03:01:12;21.83;;;4.63;;
16975;SDS011;8604;48.148;-1.786;2023-03-23T03:04:06;22.90;;;4.50;;
16975;SDS011;8604;48.148;-1.786;2023-03-23T03:06:40;19.20;;;4.67;;
16975;SDS011;8604;48.148;-1.786;2023-03-23T03:09:18;20.80;;;4.43;;
16975;SDS011;8604;48.148;-1.786;2023-03-23T03:11:54;20.03;;;4.50;;
16975;SDS011;8604;48.148;-1.786;2023-03-23T03:14:28;20.63;;;4.37;;
16975;SDS011;8604;48.148;-1.786;2023-03-23T03:17:01;17.90;;;4.20;;
16975;SDS011;8604;48.148;-1.786;2023-03-23T03:19:36;17.40;;;4.67;;
16975;SDS011;8604;48.148;-1.786;2023-03-23T03:22:06;23.73;;;4.90;;
16975;SDS011;8604;48.148;-1.786;2023-03-23T03:24:39;21.47;;;4.30;;
16975;SDS011;8604;48.148;-1.786;2023-03-23T03:27:11;16.20;;;4.20;;
16975;SDS011;8604;48.148;-1.786;2023-03-23T03:29:51;16.43;;;4.37;;
16975;SDS011;8604;48.148;-1.786;2023-03-23T03:32:25;17.90;;;4.77;;
16975;SDS011;8604;48.148;-1.786;2023-03-23T03:35:01;17.10;;;4.10;;
16975;SDS011;8604;48.148;-1.786;2023-03-23T03:37:32;20.43;;;5.10;;
16975;SDS011;8604;48.148;-1.786;2023-03-23T03:40:03;18.30;;;4.33;;
16975;SDS011;8604;48.148;-1.786;2023-03-23T03:42:39;21.97;;;4.43;;
16975;SDS011;8604;48.148;-1.786;2023-03-23T03:45:09;17.47;;;4.33;;
16975;SDS011;8604;48.148;-1.786;2023-03-23T03:47:38;15.13;;;4.57;;
16975;SDS011;8604;48.148;-1.786;2023-03-23T03:50:08;14.20;;;3.97;;
16975;SDS011;8604;48.148;-1.786;2023-03-23T03:52:36;15.50;;;3.77;;
16975;SDS011;8604;48.148;-1.786;2023-03-23T03:55:06;13.13;;;3.83;;
16975;SDS011;8604;48.148;-1.786;2023-03-23T03:57:35;14.33;;;3.80;;
16975;SDS011;8604;48.148;-1.786;2023-03-23T04:00:04;16.97;;;3.97;;
16975;SDS011;8604;48.148;-1.786;2023-03-23T04:02:40;19.30;;;4.60;;
16975;SDS011;8604;48.148;-1.786;2023-03-23T04:05:11;17.07;;;3.83;;
16975;SDS011;8604;48.148;-1.786;2023-03-23T04:07:39;19.98;;;4.22;;
16975;SDS011;8604;48.148;-1.786;2023-03-23T04:10:07;17.23;;;3.80;;
16975;SDS011;8604;48.148;-1.786;2023-03-23T04:12:37;17.53;;;4.20;;
16975;SDS011;8604;48.148;-1.786;2023-03-23T04:15:23;22.77;;;4.67;;
16975;SDS011;8604;48.148;-1.786;2023-03-23T04:17:50;20.20;;;5.00;;
16975;SDS011;8604;48.148;-1.786;2023-03-23T04:20:19;19.23;;;5.07;;
16975;SDS011;8604;48.148;-1.786;2023-03-23T04:22:49;21.10;;;4.73;;
16975;SDS011;8604;48.148;-1.786;2023-03-23T04:25:18;20.63;;;4.80;;
16975;SDS011;8604;48.148;-1.786;2023-03-23T04:27:49;17.60;;;4.40;;
16975;SDS011;8604;48.148;-1.786;2023-03-23T04:30:23;16.83;;;4.20;;
16975;SDS011;8604;48.148;-1.786;2023-03-23T04:33:00;24.17;;;4.97;;
16975;SDS011;8604;48.148;-1.786;2023-03-23T04:35:30;22.87;;;5.20;;
16975;SDS011;8604;48.148;-1.786;2023-03-23T04:38:11;22.30;;;5.37;;
16975;SDS011;8604;48.148;-1.786;2023-03-23T04:40:41;22.00;;;5.23;;
16975;SDS011;8604;48.148;-1.786;2023-03-23T04:43:24;22.67;;;5.23;;
16975;SDS011;8604;48.148;-1.786;2023-03-23T04:46:10;25.43;;;5.17;;
16975;SDS011;8604;48.148;-1.786;2023-03-23T04:48:45;28.70;;;5.63;;
16975;SDS011;8604;48.148;-1.786;2023-03-23T04:51:28;18.67;;;4.83;;
16975;SDS011;8604;48.148;-1.786;2023-03-23T04:54:02;19.20;;;4.77;;
16975;SDS011;8604;48.148;-1.786;2023-03-23T04:56:31;22.30;;;4.70;;
16975;SDS011;8604;48.148;-1.786;2023-03-23T04:59:04;16.90;;;4.10;;
16975;SDS011;8604;48.148;-1.786;2023-03-23T05:01:37;17.97;;;4.20;;
16975;SDS011;8604;48.148;-1.786;2023-03-23T05:04:15;20.10;;;4.50;;
16975;SDS011;8604;48.148;-1.786;2023-03-23T05:06:53;20.97;;;4.50;;
16975;SDS011;8604;48.148;-1.786;2023-03-23T05:09:25;17.73;;;4.77;;
16975;SDS011;8604;48.148;-1.786;2023-03-23T05:11:53;15.23;;;3.90;;
16975;SDS011;8604;48.148;-1.786;2023-03-23T05:14:21;18.53;;;4.97;;
16975;SDS011;8604;48.148;-1.786;2023-03-23T05:17:00;12.33;;;3.73;;
16975;SDS011;8604;48.148;-1.786;2023-03-23T05:19:28;19.20;;;4.20;;
16975;SDS011;8604;48.148;-1.786;2023-03-23T05:22:00;19.07;;;4.13;;
16975;SDS011;8604;48.148;-1.786;2023-03-23T05:24:40;18.43;;;4.43;;
16975;SDS011;8604;48.148;-1.786;2023-03-23T05:27:09;14.43;;;4.00;;
16975;SDS011;8604;48.148;-1.786;2023-03-23T05:29:40;17.70;;;4.27;;
16975;SDS011;8604;48.148;-1.786;2023-03-23T05:32:11;19.30;;;4.07;;
16975;SDS011;8604;48.148;-1.786;2023-03-23T05:34:38;18.43;;;4.20;;
16975;SDS011;8604;48.148;-1.786;2023-03-23T05:37:10;14.53;;;3.97;;
16975;SDS011;8604;48.148;-1.786;2023-03-23T05:40:00;16.67;;;4.60;;
16975;SDS011;8604;48.148;-1.786;2023-03-23T05:42:40;15.07;;;4.13;;
16975;SDS011;8604;48.148;-1.786;2023-03-23T05:45:13;18.33;;;4.60;;
16975;SDS011;8604;48.148;-1.786;2023-03-23T05:47:43;17.40;;;4.53;;
16975;SDS011;8604;48.148;-1.786;2023-03-23T05:50:16;20.37;;;4.80;;
16975;SDS011;8604;48.148;-1.786;2023-03-23T05:52:48;18.63;;;5.70;;
16975;SDS011;8604;48.148;-1.786;2023-03-23T05:55:25;22.57;;;9.73;;
16975;SDS011;8604;48.148;-1.786;2023-03-23T05:58:09;18.90;;;4.77;;
16975;SDS011;8604;48.148;-1.786;2023-03-23T06:00:41;21.17;;;4.57;;
16975;SDS011;8604;48.148;-1.786;2023-03-23T06:03:19;20.73;;;4.93;;
16975;SDS011;8604;48.148;-1.786;2023-03-23T06:05:59;20.23;;;4.97;;
16975;SDS011;8604;48.148;-1.786;2023-03-23T06:08:37;23.57;;;5.73;;
16975;SDS011;8604;48.148;-1.786;2023-03-23T06:11:05;21.67;;;4.90;;
16975;SDS011;8604;48.148;-1.786;2023-03-23T06:13:38;22.10;;;5.17;;
16975;SDS011;8604;48.148;-1.786;2023-03-23T06:16:10;21.47;;;5.20;;
16975;SDS011;8604;48.148;-1.786;2023-03-23T06:18:46;22.63;;;5.80;;
16975;SDS011;8604;48.148;-1.786;2023-03-23T06:21:31;25.50;;;6.10;;
16975;SDS011;8604;48.148;-1.786;2023-03-23T06:24:12;26.80;;;5.30;;
16975;SDS011;8604;48.148;-1.786;2023-03-23T06:26:40;22.27;;;5.43;;
16975;SDS011;8604;48.148;-1.786;2023-03-23T06:29:16;25.57;;;5.23;;
16975;SDS011;8604;48.148;-1.786;2023-03-23T06:31:48;23.07;;;5.27;;
16975;SDS011;8604;48.148;-1.786;2023-03-23T06:34:20;21.27;;;5.43;;
16975;SDS011;8604;48.148;-1.786;2023-03-23T06:37:09;27.40;;;6.17;;
16975;SDS011;8604;48.148;-1.786;2023-03-23T06:40:02;23.73;;;5.60;;
16975;SDS011;8604;48.148;-1.786;2023-03-23T06:42:36;23.53;;;6.10;;
16975;SDS011;8604;48.148;-1.786;2023-03-23T12:23:26;21.60;;;5.63;;
16975;SDS011;8604;48.148;-1.786;2023-03-23T12:26:15;27.40;;;5.97;;
16975;SDS011;8604;48.148;-1.786;2023-03-23T12:32:03;19.13;;;5.03;;
16975;SDS011;8604;48.148;-1.786;2023-03-23T12:34:49;19.40;;;5.10;;
16975;SDS011;8604;48.148;-1.786;2023-03-23T12:37:28;17.50;;;4.63;;
16975;SDS011;8604;48.148;-1.786;2023-03-23T12:40:22;21.97;;;5.70;;
16975;SDS011;8604;48.148;-1.786;2023-03-23T12:43:01;22.80;;;5.90;;
16975;SDS011;8604;48.148;-1.786;2023-03-23T12:45:47;22.40;;;5.53;;
16975;SDS011;8604;48.148;-1.786;2023-03-23T14:26:01;13.20;;;4.40;;
16975;SDS011;8604;48.148;-1.786;2023-03-23T14:28:38;15.60;;;4.93;;
16975;SDS011;8604;48.148;-1.786;2023-03-23T14:31:12;12.67;;;4.40;;
16975;SDS011;8604;48.148;-1.786;2023-03-23T14:33:46;16.13;;;4.40;;
16975;SDS011;8604;48.148;-1.786;2023-03-23T14:36:14;16.00;;;4.83;;
16975;SDS011;8604;48.148;-1.786;2023-03-23T14:38:48;14.83;;;4.70;;
16975;SDS011;8604;48.148;-1.786;2023-03-23T14:41:23;14.33;;;4.60;;
16975;SDS011;8604;48.148;-1.786;2023-03-23T14:43:54;15.77;;;4.43;;
16975;SDS011;8604;48.148;-1.786;2023-03-23T14:46:21;18.93;;;4.90;;
16975;SDS011;8604;48.148;-1.786;2023-03-23T14:48:51;13.33;;;3.80;;
16975;SDS011;8604;48.148;-1.786;2023-03-23T14:51:19;14.47;;;4.47;;
16975;SDS011;8604;48.148;-1.786;2023-03-23T14:53:47;14.30;;;3.80;;
16975;SDS011;8604;48.148;-1.786;2023-03-23T14:56:17;12.97;;;3.70;;
16975;SDS011;8604;48.148;-1.786;2023-03-23T14:58:48;12.67;;;3.70;;
16975;SDS011;8604;48.148;-1.786;2023-03-23T15:01:17;13.90;;;3.70;;
16975;SDS011;8604;48.148;-1.786;2023-03-23T15:03:48;11.43;;;3.00;;
16975;SDS011;8604;48.148;-1.786;2023-03-23T15:06:20;13.00;;;3.73;;
16975;SDS011;8604;48.148;-1.786;2023-03-23T15:08:52;11.53;;;3.27;;
16975;SDS011;8604;48.148;-1.786;2023-03-23T15:11:23;9.63;;;2.90;;
16975;SDS011;8604;48.148;-1.786;2023-03-23T15:13:56;8.77;;;3.27;;
16975;SDS011;8604;48.148;-1.786;2023-03-23T15:16:29;12.40;;;3.23;;
16975;SDS011;8604;48.148;-1.786;2023-03-23T15:18:59;11.70;;;3.00;;
16975;SDS011;8604;48.148;-1.786;2023-03-23T15:21:30;8.23;;;2.70;;
16975;SDS011;8604;48.148;-1.786;2023-03-23T15:24:01;12.73;;;3.10;;
16975;SDS011;8604;48.148;-1.786;2023-03-23T15:26:45;8.60;;;2.70;;
16975;SDS011;8604;48.148;-1.786;2023-03-23T15:29:18;10.03;;;2.87;;
16975;SDS011;8604;48.148;-1.786;2023-03-23T15:54:00;6.57;;;2.30;;
16975;SDS011;8604;48.148;-1.786;2023-03-23T15:56:28;5.50;;;2.17;;
16975;SDS011;8604;48.148;-1.786;2023-03-23T16:03:05;7.73;;;3.43;;
16975;SDS011;8604;48.148;-1.786;2023-03-23T16:05:35;6.93;;;2.30;;
16975;SDS011;8604;48.148;-1.786;2023-03-23T16:08:04;5.73;;;2.83;;
16975;SDS011;8604;48.148;-1.786;2023-03-23T16:10:39;8.47;;;2.20;;
16975;SDS011;8604;48.148;-1.786;2023-03-23T16:13:10;6.90;;;2.33;;
16975;SDS011;8604;48.148;-1.786;2023-03-23T16:15:38;6.57;;;2.70;;
16975;SDS011;8604;48.148;-1.786;2023-03-23T16:18:10;12.30;;;7.53;;
16975;SDS011;8604;48.148;-1.786;2023-03-23T16:20:46;10.53;;;4.03;;
16975;SDS011;8604;48.148;-1.786;2023-03-23T16:23:15;11.30;;;7.03;;
16975;SDS011;8604;48.148;-1.786;2023-03-23T16:25:46;10.17;;;4.90;;
16975;SDS011;8604;48.148;-1.786;2023-03-23T16:28:15;7.73;;;3.57;;
16975;SDS011;8604;48.148;-1.786;2023-03-23T16:30:44;6.57;;;3.60;;
16975;SDS011;8604;48.148;-1.786;2023-03-23T16:33:13;7.40;;;3.73;;
16975;SDS011;8604;48.148;-1.786;2023-03-23T16:35:42;6.03;;;2.90;;
16975;SDS011;8604;48.148;-1.786;2023-03-23T16:38:12;11.03;;;5.73;;
16975;SDS011;8604;48.148;-1.786;2023-03-23T16:40:42;11.17;;;3.70;;
16975;SDS011;8604;48.148;-1.786;2023-03-23T16:43:13;5.77;;;2.67;;
16975;SDS011;8604;48.148;-1.786;2023-03-23T16:45:43;7.83;;;3.23;;
16975;SDS011;8604;48.148;-1.786;2023-03-23T16:48:13;8.27;;;2.60;;
16975;SDS011;8604;48.148;-1.786;2023-03-23T16:50:43;7.10;;;2.60;;
16975;SDS011;8604;48.148;-1.786;2023-03-23T16:53:11;8.10;;;3.20;;
16975;SDS011;8604;48.148;-1.786;2023-03-23T16:55:40;5.67;;;2.70;;
16975;SDS011;8604;48.148;-1.786;2023-03-23T16:58:14;7.03;;;2.97;;
16975;SDS011;8604;48.148;-1.786;2023-03-23T17:00:44;8.37;;;2.87;;
16975;SDS011;8604;48.148;-1.786;2023-03-23T17:03:16;8.70;;;3.10;;
16975;SDS011;8604;48.148;-1.786;2023-03-23T17:05:46;5.33;;;2.73;;
16975;SDS011;8604;48.148;-1.786;2023-03-23T17:08:15;8.87;;;2.50;;
16975;SDS011;8604;48.148;-1.786;2023-03-23T17:10:44;6.90;;;2.80;;
16975;SDS011;8604;48.148;-1.786;2023-03-23T17:13:14;7.43;;;2.40;;
16975;SDS011;8604;48.148;-1.786;2023-03-23T17:15:44;7.00;;;2.80;;
16975;SDS011;8604;48.148;-1.786;2023-03-23T17:18:13;9.07;;;2.50;;
16975;SDS011;8604;48.148;-1.786;2023-03-23T17:20:42;6.33;;;2.37;;
16975;SDS011;8604;48.148;-1.786;2023-03-23T17:23:11;8.17;;;3.00;;
16975;SDS011;8604;48.148;-1.786;2023-03-23T17:25:40;6.07;;;2.57;;
16975;SDS011;8604;48.148;-1.786;2023-03-23T17:28:10;7.47;;;2.87;;
16975;SDS011;8604;48.148;-1.786;2023-03-23T17:30:42;6.47;;;2.50;;
16975;SDS011;8604;48.148;-1.786;2023-03-23T17:33:11;7.27;;;2.60;;
16975;SDS011;8604;48.148;-1.786;2023-03-23T17:35:41;5.10;;;2.40;;
16975;SDS011;8604;48.148;-1.786;2023-03-23T17:38:13;6.13;;;2.40;;
16975;SDS011;8604;48.148;-1.786;2023-03-23T17:40:43;5.57;;;2.43;;
16975;SDS011;8604;48.148;-1.786;2023-03-23T17:43:12;6.63;;;2.50;;
16975;SDS011;8604;48.148;-1.786;2023-03-23T17:45:42;5.80;;;2.40;;
16975;SDS011;8604;48.148;-1.786;2023-03-23T17:48:12;4.20;;;2.20;;
16975;SDS011;8604;48.148;-1.786;2023-03-23T17:50:41;5.23;;;2.20;;
16975;SDS011;8604;48.148;-1.786;2023-03-23T17:53:14;4.30;;;2.47;;
16975;SDS011;8604;48.148;-1.786;2023-03-23T17:55:44;4.17;;;2.30;;
16975;SDS011;8604;48.148;-1.786;2023-03-23T17:58:13;5.47;;;2.70;;
16975;SDS011;8604;48.148;-1.786;2023-03-23T18:00:43;6.23;;;2.43;;
16975;SDS011;8604;48.148;-1.786;2023-03-23T18:03:12;6.37;;;2.90;;
16975;SDS011;8604;48.148;-1.786;2023-03-23T18:05:41;6.37;;;2.57;;
16975;SDS011;8604;48.148;-1.786;2023-03-23T18:08:10;8.53;;;4.27;;
16975;SDS011;8604;48.148;-1.786;2023-03-23T18:10:39;7.33;;;4.63;;
16975;SDS011;8604;48.148;-1.786;2023-03-23T18:13:08;7.87;;;4.10;;
16975;SDS011;8604;48.148;-1.786;2023-03-23T18:15:36;6.43;;;2.93;;
16975;SDS011;8604;48.148;-1.786;2023-03-23T18:18:06;6.63;;;4.07;;
16975;SDS011;8604;48.148;-1.786;2023-03-23T18:20:35;5.80;;;2.20;;
16975;SDS011;8604;48.148;-1.786;2023-03-23T18:23:04;10.50;;;5.73;;
16975;SDS011;8604;48.148;-1.786;2023-03-23T18:25:33;7.90;;;3.63;;
16975;SDS011;8604;48.148;-1.786;2023-03-23T18:28:01;9.60;;;3.30;;
16975;SDS011;8604;48.148;-1.786;2023-03-23T18:30:32;5.07;;;2.97;;
16975;SDS011;8604;48.148;-1.786;2023-03-23T18:33:02;6.50;;;3.10;;
16975;SDS011;8604;48.148;-1.786;2023-03-23T18:35:33;5.10;;;2.60;;
16975;SDS011;8604;48.148;-1.786;2023-03-23T18:38:05;4.87;;;2.60;;
16975;SDS011;8604;48.148;-1.786;2023-03-23T18:40:33;5.77;;;2.90;;
16975;SDS011;8604;48.148;-1.786;2023-03-23T18:43:02;5.37;;;2.77;;
16975;SDS011;8604;48.148;-1.786;2023-03-23T18:45:31;8.63;;;3.20;;
16975;SDS011;8604;48.148;-1.786;2023-03-23T18:47:59;4.90;;;2.70;;
16975;SDS011;8604;48.148;-1.786;2023-03-23T18:50:29;5.07;;;2.70;;
16975;SDS011;8604;48.148;-1.786;2023-03-23T18:52:59;6.43;;;3.10;;
16975;SDS011;8604;48.148;-1.786;2023-03-23T18:55:28;6.87;;;2.97;;
16975;SDS011;8604;48.148;-1.786;2023-03-23T18:57:59;6.80;;;2.90;;
16975;SDS011;8604;48.148;-1.786;2023-03-23T19:00:28;6.43;;;3.17;;
16975;SDS011;8604;48.148;-1.786;2023-03-23T19:02:59;6.10;;;2.83;;
16975;SDS011;8604;48.148;-1.786;2023-03-23T19:05:41;7.10;;;3.33;;
16975;SDS011;8604;48.148;-1.786;2023-03-23T19:08:13;7.47;;;3.20;;
16975;SDS011;8604;48.148;-1.786;2023-03-23T19:10:43;6.27;;;3.10;;
16975;SDS011;8604;48.148;-1.786;2023-03-23T19:13:11;5.87;;;2.80;;
16975;SDS011;8604;48.148;-1.786;2023-03-23T19:15:43;6.10;;;3.00;;
16975;SDS011;8604;48.148;-1.786;2023-03-23T19:18:12;6.63;;;3.00;;
16975;SDS011;8604;48.148;-1.786;2023-03-23T19:20:41;7.43;;;2.90;;
16975;SDS011;8604;48.148;-1.786;2023-03-23T19:23:32;6.27;;;2.90;;
16975;SDS011;8604;48.148;-1.786;2023-03-23T19:26:02;6.87;;;3.27;;
16975;SDS011;8604;48.148;-1.786;2023-03-23T19:28:31;5.23;;;2.83;;
16975;SDS011;8604;48.148;-1.786;2023-03-23T19:31:20;5.20;;;3.00;;
16975;SDS011;8604;48.148;-1.786;2023-03-23T19:33:50;7.63;;;2.90;;
16975;SDS011;8604;48.148;-1.786;2023-03-23T19:36:20;6.20;;;2.90;;
16975;SDS011;8604;48.148;-1.786;2023-03-23T19:38:52;7.60;;;2.80;;
16975;SDS011;8604;48.148;-1.786;2023-03-23T19:41:28;5.17;;;2.60;;
16975;SDS011;8604;48.148;-1.786;2023-03-23T19:43:57;7.37;;;2.90;;
16975;SDS011;8604;48.148;-1.786;2023-03-23T19:46:27;6.33;;;2.50;;
16975;SDS011;8604;48.148;-1.786;2023-03-23T19:48:57;6.33;;;2.40;;
16975;SDS011;8604;48.148;-1.786;2023-03-23T19:51:26;6.20;;;2.50;;
16975;SDS011;8604;48.148;-1.786;2023-03-23T19:53:57;5.53;;;2.57;;
16975;SDS011;8604;48.148;-1.786;2023-03-23T19:56:26;6.43;;;2.47;;
16975;SDS011;8604;48.148;-1.786;2023-03-23T19:58:56;5.27;;;2.33;;
16975;SDS011;8604;48.148;-1.786;2023-03-23T20:01:26;5.73;;;2.77;;
16975;SDS011;8604;48.148;-1.786;2023-03-23T20:03:55;5.13;;;3.10;;
16975;SDS011;8604;48.148;-1.786;2023-03-23T20:06:26;4.30;;;2.47;;
16975;SDS011;8604;48.148;-1.786;2023-03-23T20:09:13;5.27;;;2.60;;
16975;SDS011;8604;48.148;-1.786;2023-03-23T20:11:47;6.00;;;2.80;;
16975;SDS011;8604;48.148;-1.786;2023-03-23T20:14:16;7.03;;;2.40;;
16975;SDS011;8604;48.148;-1.786;2023-03-23T20:16:47;6.03;;;2.30;;
16975;SDS011;8604;48.148;-1.786;2023-03-23T20:19:16;7.00;;;2.50;;
16975;SDS011;8604;48.148;-1.786;2023-03-23T20:21:52;6.73;;;2.53;;
16975;SDS011;8604;48.148;-1.786;2023-03-23T20:24:24;6.07;;;2.30;;
16975;SDS011;8604;48.148;-1.786;2023-03-23T20:26:53;4.50;;;2.23;;
16975;SDS011;8604;48.148;-1.786;2023-03-23T20:29:25;8.33;;;2.80;;
16975;SDS011;8604;48.148;-1.786;2023-03-23T20:31:57;7.97;;;2.60;;
16975;SDS011;8604;48.148;-1.786;2023-03-23T20:34:33;7.30;;;2.23;;
16975;SDS011;8604;48.148;-1.786;2023-03-23T20:37:16;7.93;;;2.10;;
16975;SDS011;8604;48.148;-1.786;2023-03-23T20:39:51;6.53;;;1.97;;
16975;SDS011;8604;48.148;-1.786;2023-03-23T20:42:27;8.03;;;1.70;;
16975;SDS011;8604;48.148;-1.786;2023-03-23T20:45:04;4.60;;;1.50;;
16975;SDS011;8604;48.148;-1.786;2023-03-23T20:47:35;3.87;;;1.47;;
16975;SDS011;8604;48.148;-1.786;2023-03-23T20:50:25;6.47;;;1.70;;
16975;SDS011;8604;48.148;-1.786;2023-03-23T20:52:59;5.43;;;1.70;;
16975;SDS011;8604;48.148;-1.786;2023-03-23T20:55:33;3.90;;;1.60;;
16975;SDS011;8604;48.148;-1.786;2023-03-23T22:15:43;6.60;;;2.00;;
16975;SDS011;8604;48.148;-1.786;2023-03-23T22:19:48;9.37;;;2.10;;
16975;SDS011;8604;48.148;-1.786;2023-03-23T22:23:02;8.77;;;1.87;;
16975;SDS011;8604;48.148;-1.786;2023-03-23T22:25:38;6.17;;;1.83;;
16975;SDS011;8604;48.148;-1.786;2023-03-23T22:32:42;11.20;;;2.50;;
16975;SDS011;8604;48.148;-1.786;2023-03-23T22:35:11;8.10;;;2.17;;
16975;SDS011;8604;48.148;-1.786;2023-03-23T22:37:39;8.30;;;2.30;;
16975;SDS011;8604;48.148;-1.786;2023-03-23T22:40:08;11.33;;;2.37;;
16975;SDS011;8604;48.148;-1.786;2023-03-23T22:42:37;6.40;;;2.03;;
16975;SDS011;8604;48.148;-1.786;2023-03-23T22:45:06;7.33;;;2.00;;
16975;SDS011;8604;48.148;-1.786;2023-03-23T22:47:35;12.33;;;2.40;;
16975;SDS011;8604;48.148;-1.786;2023-03-23T22:50:07;8.17;;;2.47;;
16975;SDS011;8604;48.148;-1.786;2023-03-23T22:52:36;9.83;;;2.40;;
16975;SDS011;8604;48.148;-1.786;2023-03-23T22:55:05;8.03;;;2.23;;
16975;SDS011;8604;48.148;-1.786;2023-03-23T22:57:35;8.23;;;1.97;;
16975;SDS011;8604;48.148;-1.786;2023-03-23T23:00:04;6.37;;;2.03;;
16975;SDS011;8604;48.148;-1.786;2023-03-23T23:02:39;8.00;;;2.47;;
16975;SDS011;8604;48.148;-1.786;2023-03-23T23:05:09;10.57;;;2.50;;
16975;SDS011;8604;48.148;-1.786;2023-03-23T23:07:38;8.20;;;2.00;;
16975;SDS011;8604;48.148;-1.786;2023-03-23T23:10:07;7.97;;;2.20;;
16975;SDS011;8604;48.148;-1.786;2023-03-23T23:12:36;10.33;;;2.40;;
16975;SDS011;8604;48.148;-1.786;2023-03-23T23:15:05;11.50;;;2.40;;
16975;SDS011;8604;48.148;-1.786;2023-03-23T23:17:34;14.87;;;2.97;;
16975;SDS011;8604;48.148;-1.786;2023-03-23T23:20:04;11.10;;;2.80;;
16975;SDS011;8604;48.148;-1.786;2023-03-23T23:22:39;16.70;;;2.93;;
16975;SDS011;8604;48.148;-1.786;2023-03-23T23:25:10;10.70;;;2.77;;
16975;SDS011;8604;48.148;-1.786;2023-03-23T23:27:39;13.17;;;2.70;;
16975;SDS011;8604;48.148;-1.786;2023-03-23T23:30:08;12.57;;;2.93;;
16975;SDS011;8604;48.148;-1.786;2023-03-23T23:32:37;12.13;;;3.13;;
16975;SDS011;8604;48.148;-1.786;2023-03-23T23:35:08;11.83;;;2.73;;
16975;SDS011;8604;48.148;-1.786;2023-03-23T23:37:37;14.93;;;3.30;;
16975;SDS011;8604;48.148;-1.786;2023-03-23T23:40:08;15.40;;;3.53;;
16975;SDS011;8604;48.148;-1.786;2023-03-23T23:42:40;13.13;;;3.10;;
16975;SDS011;8604;48.148;-1.786;2023-03-23T23:45:09;15.80;;;3.50;;
16975;SDS011;8604;48.148;-1.786;2023-03-23T23:47:38;10.80;;;2.63;;
16975;SDS011;8604;48.148;-1.786;2023-03-23T23:50:08;14.67;;;2.90;;
16975;SDS011;8604;48.148;-1.786;2023-03-23T23:52:39;9.83;;;2.90;;
16975;SDS011;8604;48.148;-1.786;2023-03-23T23:55:15;13.33;;;3.10;;
16975;SDS011;8604;48.148;-1.786;2023-03-23T23:57:44;12.30;;;3.07;;
